createdAt,value
2023-03-29T00:00:36.433Z,100751.11
2023-03-29T00:03:16.822Z,100752.15
2023-03-29T00:05:45.417Z,100753.66
2023-03-29T00:08:14.961Z,100751.65
2023-03-29T00:10:43.187Z,100750.95
2023-03-29T00:13:11.359Z,100753.73
2023-03-29T00:15:41.279Z,100753.00
2023-03-29T00:18:09.672Z,100755.55
2023-03-29T00:20:37.882Z,100756.33
2023-03-29T00:23:07.129Z,100753.11
2023-03-29T00:25:35.357Z,100758.28
2023-03-29T00:28:03.627Z,100757.75
2023-03-29T00:30:31.933Z,100760.21
2023-03-29T00:33:00.241Z,100765.38
2023-03-29T00:35:28.408Z,100759.74
2023-03-29T00:37:57.926Z,100758.05
2023-03-29T00:40:26.553Z,100756.26
2023-03-29T00:42:57.228Z,100757.48
2023-03-29T00:45:30.505Z,100759.34
2023-03-29T00:48:03.017Z,100754.11
2023-03-29T00:50:36.488Z,100755.79
2023-03-29T00:53:12.613Z,100757.40
2023-03-29T00:55:49.862Z,100754.42
2023-03-29T00:58:24.777Z,100757.66
2023-03-29T01:01:02.474Z,100753.23
2023-03-29T01:03:38.080Z,100749.23
2023-03-29T01:06:08.763Z,100750.28
2023-03-29T01:08:43.395Z,100754.11
2023-03-29T01:11:24.868Z,100752.34
2023-03-29T01:14:02.733Z,100751.52
2023-03-29T01:16:33.260Z,100753.33
2023-03-29T01:19:02.390Z,100753.40
2023-03-29T01:21:44.241Z,100753.86
2023-03-29T01:24:47.197Z,100752.11
2023-03-29T01:27:44.663Z,100746.70
2023-03-29T01:30:31.997Z,100748.47
2023-03-29T01:36:16.593Z,100748.09
2023-03-29T01:38:50.853Z,100750.08
2023-03-29T01:41:18.989Z,100750.70
2023-03-29T01:44:02.631Z,100753.52
2023-03-29T01:46:45.760Z,100758.10
2023-03-29T01:49:29.582Z,100759.86
2023-03-29T01:52:15.117Z,100757.58
2023-03-29T01:54:58.379Z,100757.39
2023-03-29T01:57:27.319Z,100761.34
2023-03-29T01:59:57.874Z,100757.44
2023-03-29T02:02:28.800Z,100755.63
2023-03-29T02:04:59.552Z,100755.51
2023-03-29T02:07:32.467Z,100755.66
2023-03-29T02:10:02.163Z,100755.82
2023-03-29T02:12:31.166Z,100756.73
2023-03-29T02:15:00.863Z,100755.78
2023-03-29T02:17:31.440Z,100755.51
2023-03-29T02:20:02.272Z,100762.64
2023-03-29T02:22:39.321Z,100762.34
2023-03-29T02:25:09.525Z,100763.55
2023-03-29T02:27:39.383Z,100766.83
2023-03-29T02:30:10.830Z,100766.76
2023-03-29T02:33:08.421Z,100766.52
2023-03-29T02:35:46.456Z,100764.91
2023-03-29T02:38:15.458Z,100765.98
2023-03-29T02:40:44.180Z,100769.83
2023-03-29T02:43:14.572Z,100768.95
2023-03-29T02:45:44.343Z,100767.90
2023-03-29T02:48:18.129Z,100770.28
2023-03-29T02:50:51.260Z,100772.66
2023-03-29T02:53:24.615Z,100771.29
2023-03-29T02:55:55.060Z,100774.52
2023-03-29T02:58:26.696Z,100774.33
2023-03-29T03:00:58.684Z,100772.64
2023-03-29T03:03:27.700Z,100773.72
2023-03-29T03:05:56.643Z,100770.41
2023-03-29T03:08:24.831Z,100772.13
2023-03-29T03:10:54.206Z,100769.34
2023-03-29T03:13:22.276Z,100771.13
2023-03-29T03:15:50.735Z,100772.38
2023-03-29T03:18:18.895Z,100773.02
2023-03-29T03:20:59.408Z,100775.44
2023-03-29T03:23:29.098Z,100778.06
2023-03-29T03:25:57.572Z,100779.20
2023-03-29T03:28:27.457Z,100781.63
2023-03-29T03:30:56.096Z,100785.48
2023-03-29T03:33:25.041Z,100784.17
2023-03-29T03:36:26.433Z,100786.64
2023-03-29T03:38:55.174Z,100789.63
2023-03-29T03:41:23.369Z,100790.69
2023-03-29T03:43:51.433Z,100790.73
2023-03-29T03:46:19.764Z,100790.02
2023-03-29T03:48:48.207Z,100782.64
2023-03-29T03:51:36.941Z,100792.61
2023-03-29T03:54:05.671Z,100795.03
2023-03-29T03:56:36.361Z,100796.48
2023-03-29T03:59:18.157Z,100800.24
2023-03-29T04:05:48.851Z,100800.74
2023-03-29T04:08:18.160Z,100801.05
2023-03-29T04:11:07.757Z,100807.52
2023-03-29T04:13:38.470Z,100804.98
2023-03-29T04:16:25.431Z,100810.80
2023-03-29T04:18:53.883Z,100805.20
2023-03-29T04:21:23.229Z,100811.25
2023-03-29T04:23:51.451Z,100813.55
2023-03-29T04:26:19.695Z,100811.70
2023-03-29T04:28:56.582Z,100812.86
2023-03-29T04:34:37.207Z,100810.85
2023-03-29T04:37:10.593Z,100803.98
2023-03-29T04:39:39.627Z,100803.77
2023-03-29T04:42:09.559Z,100801.52
2023-03-29T04:44:37.824Z,100801.21
2023-03-29T04:47:07.314Z,100801.46
2023-03-29T04:49:44.511Z,100804.39
2023-03-29T04:52:18.586Z,100807.38
2023-03-29T04:54:46.740Z,100804.65
2023-03-29T04:57:26.184Z,100801.93
2023-03-29T05:00:08.461Z,100800.64
2023-03-29T05:02:59.706Z,100800.61
2023-03-29T05:05:28.496Z,100800.02
2023-03-29T05:07:57.578Z,100796.25
2023-03-29T05:10:30.132Z,100803.23
2023-03-29T05:12:58.387Z,100804.10
2023-03-29T05:15:27.406Z,100805.45
2023-03-29T05:17:56.246Z,100808.00
2023-03-29T05:20:25.278Z,100808.98
2023-03-29T05:22:53.848Z,100806.77
2023-03-29T05:25:43.967Z,100806.52
2023-03-29T05:28:12.098Z,100806.53
2023-03-29T05:30:40.898Z,100807.45
2023-03-29T05:33:21.152Z,100808.00
2023-03-29T05:35:49.205Z,100808.54
2023-03-29T05:38:18.066Z,100810.06
2023-03-29T05:40:46.103Z,100809.73
2023-03-29T05:43:33.756Z,100808.46
2023-03-29T05:46:03.074Z,100808.85
2023-03-29T05:48:31.659Z,100809.45
2023-03-29T05:50:59.884Z,100809.86
2023-03-29T05:53:28.459Z,100808.92
2023-03-29T05:55:57.311Z,100811.48
2023-03-29T05:58:28.545Z,100812.70
2023-03-29T06:00:57.570Z,100813.60
2023-03-29T06:03:36.671Z,100812.92
2023-03-29T06:06:05.512Z,100812.60
2023-03-29T06:08:35.313Z,100811.66
2023-03-29T06:11:26.515Z,100814.22
2023-03-29T06:14:13.955Z,100813.66
2023-03-29T06:16:50.965Z,100814.52
2023-03-29T06:19:19.793Z,100810.45
2023-03-29T06:21:48.024Z,100813.33
2023-03-29T06:24:20.745Z,100811.61
2023-03-29T06:26:57.141Z,100817.41
2023-03-29T06:29:25.749Z,100814.90
2023-03-29T06:31:55.044Z,100815.29
2023-03-29T06:34:49.615Z,100816.91
2023-03-29T06:37:30.188Z,100816.54
2023-03-29T06:40:07.032Z,100813.77
2023-03-29T06:42:48.304Z,100816.06
2023-03-29T06:45:37.841Z,100819.42
2023-03-29T06:48:09.822Z,100824.83
2023-03-29T06:50:38.226Z,100824.64
2023-03-29T06:53:11.616Z,100826.14
2023-03-29T06:55:41.383Z,100828.08
2023-03-29T06:58:32.864Z,100824.78
2023-03-29T07:01:05.538Z,100824.94
2023-03-29T07:03:51.447Z,100828.91
2023-03-29T07:06:24.084Z,100830.17
2023-03-29T07:08:52.765Z,100830.73
2023-03-29T07:11:41.712Z,100835.70
2023-03-29T07:14:20.638Z,100835.81
2023-03-29T07:16:49.676Z,100836.96
2023-03-29T07:19:22.823Z,100831.64
2023-03-29T07:21:57.275Z,100832.83
2023-03-29T07:24:35.013Z,100834.27
2023-03-29T07:27:04.547Z,100829.61
2023-03-29T07:29:33.713Z,100830.23
2023-03-29T07:32:01.820Z,100831.13
2023-03-29T07:34:50.049Z,100827.54
2023-03-29T07:37:25.465Z,100819.69
2023-03-29T07:39:54.001Z,100821.02
2023-03-29T07:42:40.394Z,100821.02
2023-03-29T07:45:11.401Z,100823.42
2023-03-29T07:47:49.417Z,100821.13
2023-03-29T07:50:18.125Z,100817.83
2023-03-29T07:52:46.297Z,100817.20
2023-03-29T07:55:16.534Z,100816.54
2023-03-29T07:57:55.664Z,100810.25
2023-03-29T08:00:24.984Z,100812.05
2023-03-29T08:03:13.275Z,100811.03
2023-03-29T08:05:42.588Z,100807.39
2023-03-29T08:08:14.310Z,100807.48
2023-03-29T08:11:02.266Z,100809.83
2023-03-29T08:13:43.472Z,100802.13
2023-03-29T08:16:37.336Z,100803.86
2023-03-29T08:19:10.123Z,100801.89
2023-03-29T08:22:01.182Z,100797.52
2023-03-29T08:24:33.112Z,100793.46
2023-03-29T08:27:05.491Z,100793.95
2023-03-29T08:29:33.717Z,100792.27
2023-03-29T08:32:01.799Z,100790.54
2023-03-29T08:34:31.914Z,100787.16
2023-03-29T08:37:38.431Z,100783.56
2023-03-29T08:40:07.418Z,100777.94
2023-03-29T08:43:13.847Z,100783.02
2023-03-29T08:46:00.836Z,100782.20
2023-03-29T08:48:36.423Z,100779.96
2023-03-29T08:51:17.357Z,100772.84
2023-03-29T08:53:57.291Z,100776.67
2023-03-29T08:56:34.149Z,100776.44
2023-03-29T08:59:03.554Z,100778.75
2023-03-29T09:01:36.334Z,100780.41
2023-03-29T09:04:18.863Z,100778.39
2023-03-29T09:06:57.904Z,100773.22
2023-03-29T09:09:34.010Z,100780.48
2023-03-29T09:12:22.802Z,100779.05
2023-03-29T09:15:09.634Z,100781.46
2023-03-29T09:17:42.043Z,100778.52
2023-03-29T09:20:23.585Z,100778.60
2023-03-29T09:23:03.260Z,100774.85
2023-03-29T09:25:50.796Z,100771.85
2023-03-29T09:28:22.766Z,100766.75
2023-03-29T09:31:28.895Z,100766.67
2023-03-29T09:34:03.863Z,100760.27
2023-03-29T09:37:02.764Z,100764.00
2023-03-29T09:39:31.935Z,100761.96
2023-03-29T09:42:09.523Z,100756.35
2023-03-29T09:44:43.988Z,100755.88
2023-03-29T09:47:25.030Z,100747.50
2023-03-29T09:49:59.386Z,100745.98
2023-03-29T09:52:27.724Z,100744.58
2023-03-29T09:55:05.474Z,100741.84
2023-03-29T09:57:54.217Z,100740.65
2023-03-29T10:00:22.501Z,100737.20
2023-03-29T10:02:57.274Z,100739.55
2023-03-29T10:05:37.039Z,100742.83
2023-03-29T10:08:38.748Z,100739.67
2023-03-29T10:11:13.002Z,100735.00
2023-03-29T10:13:47.816Z,100734.16
2023-03-29T10:16:22.333Z,100737.10
2023-03-29T10:18:51.289Z,100738.64
2023-03-29T10:21:34.397Z,100734.14
2023-03-29T10:24:02.562Z,100729.46
2023-03-29T10:26:34.501Z,100728.05
2023-03-29T10:29:08.378Z,100731.98
2023-03-29T10:31:41.697Z,100735.89
2023-03-29T10:34:13.861Z,100733.48
2023-03-29T10:36:44.242Z,100733.17
2023-03-29T10:39:31.516Z,100729.87
2023-03-29T10:42:04.373Z,100735.46
2023-03-29T10:44:36.219Z,100729.22
2023-03-29T10:47:13.010Z,100730.17
2023-03-29T10:49:44.388Z,100720.16
2023-03-29T10:52:17.415Z,100722.14
2023-03-29T10:54:46.649Z,100722.66
2023-03-29T10:57:39.615Z,100721.52
2023-03-29T11:05:03.841Z,100704.92
2023-03-29T11:08:05.653Z,100708.52
2023-03-29T11:10:43.356Z,100700.91
2023-03-29T11:13:39.656Z,100697.99
2023-03-29T11:16:31.131Z,100692.23
2023-03-29T11:19:02.201Z,100687.91
2023-03-29T11:21:48.821Z,100686.33
2023-03-29T11:24:53.769Z,100683.63
2023-03-29T11:27:56.351Z,100682.14
2023-03-29T11:30:45.023Z,100681.48
2023-03-29T11:33:46.781Z,100678.32
2023-03-29T11:36:22.780Z,100674.63
2023-03-29T11:38:53.873Z,100670.20
2023-03-29T11:41:27.559Z,100667.64
2023-03-29T11:44:13.937Z,100661.91
2023-03-29T11:46:51.272Z,100657.33
2023-03-29T11:49:25.520Z,100656.73
2023-03-29T11:52:01.273Z,100663.98
2023-03-29T11:54:39.597Z,100658.18
2023-03-29T11:57:20.662Z,100653.00
2023-03-29T12:00:01.164Z,100646.54
2023-03-29T12:02:40.475Z,100642.69
2023-03-29T12:05:19.120Z,100640.27
2023-03-29T12:08:09.250Z,100634.16
2023-03-29T12:10:42.867Z,100628.23
2023-03-29T12:13:24.727Z,100627.54
2023-03-29T12:16:05.139Z,100630.58
2023-03-29T12:18:46.570Z,100625.29
2023-03-29T12:21:19.880Z,100623.18
2023-03-29T12:23:49.013Z,100618.06
2023-03-29T12:26:54.698Z,100619.97
2023-03-29T12:29:58.145Z,100618.86
2023-03-29T12:32:44.718Z,100612.38
2023-03-29T12:36:17.357Z,100611.34
2023-03-29T12:39:24.771Z,100614.84
2023-03-29T12:42:23.235Z,100616.66
2023-03-29T12:45:31.975Z,100610.08
2023-03-29T12:48:00.775Z,100609.10
2023-03-29T12:50:35.123Z,100600.73
2023-03-29T12:53:07.534Z,100596.25
2023-03-29T12:56:08.768Z,100599.00
2023-03-29T12:58:39.735Z,100594.11
2023-03-29T13:01:23.442Z,100589.90
2023-03-29T13:03:57.847Z,100594.67
2023-03-29T13:06:30.978Z,100591.16
2023-03-29T13:09:00.712Z,100595.02
2023-03-29T13:11:45.660Z,100595.95
2023-03-29T13:14:19.010Z,100590.48
2023-03-29T13:16:48.097Z,100590.98
2023-03-29T13:19:24.087Z,100590.99
2023-03-29T13:22:10.863Z,100588.19
2023-03-29T13:24:41.617Z,100585.20
2023-03-29T13:27:15.861Z,100588.52
2023-03-29T13:29:50.083Z,100577.00
2023-03-29T13:32:30.538Z,100582.83
2023-03-29T13:35:11.730Z,100579.52
2023-03-29T13:37:58.215Z,100575.18
2023-03-29T13:40:44.613Z,100569.52
2023-03-29T13:43:19.420Z,100560.73
2023-03-29T13:45:56.985Z,100563.17
2023-03-29T13:48:37.668Z,100558.31
2023-03-29T13:51:17.850Z,100557.50
2023-03-29T13:53:53.014Z,100553.41
2023-03-29T13:56:30.065Z,100545.14
2023-03-29T13:59:17.134Z,100542.53
2023-03-29T14:01:57.979Z,100548.84
2023-03-29T14:04:46.916Z,100546.16
2023-03-29T14:07:26.469Z,100540.36
2023-03-29T14:09:56.669Z,100547.27
2023-03-29T14:12:27.450Z,100540.69
2023-03-29T14:15:01.575Z,100543.40
2023-03-29T14:17:30.506Z,100542.85
2023-03-29T14:20:00.688Z,100541.80
2023-03-29T14:22:33.921Z,100538.76
2023-03-29T14:25:07.372Z,100540.00
2023-03-29T14:27:37.280Z,100537.73
2023-03-29T14:30:27.594Z,100535.83
2023-03-29T14:32:56.903Z,100536.56
2023-03-29T14:35:32.342Z,100538.52
2023-03-29T14:38:02.045Z,100536.46
2023-03-29T14:40:30.907Z,100536.29
2023-03-29T14:43:05.478Z,100533.80
2023-03-29T14:45:33.976Z,100527.53
2023-03-29T14:48:02.537Z,100524.91
2023-03-29T14:50:32.451Z,100518.89
2023-03-29T14:53:01.760Z,100528.16
2023-03-29T14:55:31.125Z,100523.02
2023-03-29T14:58:00.542Z,100524.73
2023-03-29T15:00:38.547Z,100522.71
2023-03-29T15:03:14.181Z,100526.98
2023-03-29T15:05:57.554Z,100523.29
2023-03-29T15:08:37.756Z,100520.66
2023-03-29T15:11:24.541Z,100519.00
2023-03-29T15:14:00.442Z,100520.98
2023-03-29T15:16:32.976Z,100517.65
2023-03-29T15:19:02.335Z,100517.50
2023-03-29T15:21:34.681Z,100513.14
2023-03-29T15:24:04.094Z,100509.77
2023-03-29T15:26:36.758Z,100507.26
2023-03-29T15:29:15.346Z,100509.78
2023-03-29T15:31:55.604Z,100505.79
2023-03-29T15:34:29.479Z,100502.38
2023-03-29T15:36:58.019Z,100506.23
2023-03-29T15:39:30.866Z,100503.52
2023-03-29T15:41:59.389Z,100501.88
2023-03-29T15:44:33.372Z,100498.67
2023-03-29T15:47:01.755Z,100496.84
2023-03-29T15:49:29.949Z,100495.19
2023-03-29T15:51:58.493Z,100499.02
2023-03-29T15:54:28.742Z,100499.10
2023-03-29T15:57:02.307Z,100500.59
2023-03-29T15:59:31.941Z,100497.12
2023-03-29T16:02:00.988Z,100498.42
2023-03-29T16:04:30.213Z,100503.73
2023-03-29T16:06:58.581Z,100499.11
2023-03-29T16:09:27.470Z,100499.34
2023-03-29T16:11:55.700Z,100491.80
2023-03-29T16:14:24.308Z,100494.16
2023-03-29T16:16:53.406Z,100488.06
2023-03-29T16:19:22.364Z,100485.05
2023-03-29T16:21:51.249Z,100478.92
2023-03-29T16:24:28.139Z,100482.98
2023-03-29T16:26:57.551Z,100481.84
2023-03-29T16:29:26.028Z,100480.55
2023-03-29T16:31:54.581Z,100480.81
2023-03-29T16:34:23.010Z,100476.58
2023-03-29T16:36:51.253Z,100473.83
2023-03-29T16:39:19.559Z,100468.50
2023-03-29T16:41:49.028Z,100467.16
2023-03-29T16:44:22.832Z,100466.61
2023-03-29T16:46:57.841Z,100465.27
2023-03-29T16:49:26.071Z,100465.14
2023-03-29T16:51:54.166Z,100463.08
2023-03-29T16:54:29.719Z,100457.95
2023-03-29T16:56:58.173Z,100460.05
2023-03-29T16:59:27.133Z,100459.79
2023-03-29T17:01:55.517Z,100457.10
2023-03-29T17:04:23.732Z,100457.17
2023-03-29T17:06:51.827Z,100460.50
2023-03-29T17:09:20.085Z,100457.03
2023-03-29T17:11:48.549Z,100455.14
2023-03-29T17:14:17.228Z,100457.78
2023-03-29T17:16:46.402Z,100457.52
2023-03-29T17:19:14.556Z,100453.52
2023-03-29T17:21:43.135Z,100456.80
2023-03-29T17:24:11.515Z,100456.37
2023-03-29T17:26:40.042Z,100460.25
2023-03-29T17:29:08.422Z,100463.05
2023-03-29T17:31:36.709Z,100465.36
2023-03-29T17:34:05.078Z,100465.66
2023-03-29T17:36:33.862Z,100468.89
2023-03-29T17:39:02.729Z,100472.14
2023-03-29T17:41:31.693Z,100470.06
2023-03-29T17:43:59.958Z,100463.71
2023-03-29T17:46:28.258Z,100467.70
2023-03-29T17:48:56.703Z,100470.02
2023-03-29T17:51:25.336Z,100477.70
2023-03-29T17:53:54.899Z,100478.94
2023-03-29T17:56:23.432Z,100475.66
2023-03-29T17:58:52.450Z,100479.36
2023-03-29T18:01:20.995Z,100480.31
2023-03-29T18:03:49.314Z,100480.11
2023-03-29T18:06:20.250Z,100482.72
2023-03-29T18:08:48.610Z,100483.08
2023-03-29T18:11:22.479Z,100485.17
2023-03-29T18:13:52.409Z,100481.66
2023-03-29T18:16:22.172Z,100479.77
2023-03-29T18:18:51.085Z,100480.10
2023-03-29T18:21:20.043Z,100474.27
2023-03-29T18:23:49.554Z,100474.27
2023-03-29T18:26:17.948Z,100473.63
2023-03-29T18:28:47.350Z,100469.88
2023-03-29T18:31:16.033Z,100469.20
2023-03-29T18:33:44.380Z,100459.61
2023-03-29T18:36:13.849Z,100459.95
2023-03-29T18:38:43.836Z,100459.42
2023-03-29T18:41:14.127Z,100465.05
2023-03-29T18:43:43.321Z,100470.52
2023-03-29T18:46:12.165Z,100474.20
2023-03-29T18:48:41.068Z,100475.64
2023-03-29T18:51:11.472Z,100475.27
2023-03-29T18:53:41.657Z,100482.04
2023-03-29T18:56:10.128Z,100483.82
2023-03-29T18:58:38.191Z,100479.45
2023-03-29T19:04:37.178Z,100477.91
2023-03-29T19:07:05.450Z,100472.77
2023-03-29T19:09:33.582Z,100477.32
2023-03-29T19:12:02.341Z,100472.92
2023-03-29T19:14:30.703Z,100479.08
2023-03-29T19:16:58.757Z,100475.72
2023-03-29T19:19:27.313Z,100479.06
2023-03-29T19:21:57.694Z,100481.94
2023-03-29T19:24:28.199Z,100481.66
2023-03-29T19:26:56.592Z,100477.67
2023-03-29T19:29:25.869Z,100473.50
2023-03-29T19:31:54.772Z,100472.73
2023-03-29T19:34:24.367Z,100474.24
2023-03-29T19:37:49.645Z,100468.89
2023-03-29T19:40:17.907Z,100468.88
2023-03-29T19:42:47.616Z,100466.84
2023-03-29T19:45:15.629Z,100463.30
2023-03-29T19:47:47.585Z,100465.46
2023-03-29T19:50:15.778Z,100462.06
2023-03-29T19:52:43.939Z,100456.42
2023-03-29T19:55:12.436Z,100450.08
2023-03-29T19:57:40.569Z,100446.60
2023-03-29T20:00:10.852Z,100447.84
2023-03-29T20:02:42.570Z,100447.86
2023-03-29T20:05:10.655Z,100443.61
2023-03-29T20:07:38.640Z,100440.75
2023-03-29T20:10:07.344Z,100433.41
2023-03-29T20:12:36.569Z,100431.86
2023-03-29T20:15:05.392Z,100434.05
2023-03-29T20:17:35.782Z,100428.02
2023-03-29T20:20:08.449Z,100420.14
2023-03-29T20:22:42.159Z,100416.96
2023-03-29T20:25:10.668Z,100410.95
2023-03-29T20:27:41.103Z,100411.41
2023-03-29T20:30:10.933Z,100406.58
2023-03-29T20:32:39.060Z,100403.52
2023-03-29T20:35:07.612Z,100396.40
2023-03-29T20:37:36.199Z,100391.23
2023-03-29T20:40:05.537Z,100388.08
2023-03-29T20:42:34.670Z,100385.39
2023-03-29T20:45:03.441Z,100383.36
2023-03-29T20:47:31.842Z,100387.42
2023-03-29T20:50:01.795Z,100384.80
2023-03-29T20:52:30.767Z,100387.38
2023-03-29T20:54:59.252Z,100384.98
2023-03-29T20:57:29.283Z,100383.77
2023-03-29T20:59:59.243Z,100386.79
2023-03-29T21:02:27.516Z,100387.76
2023-03-29T21:05:00.266Z,100386.31
2023-03-29T21:07:28.926Z,100381.44
2023-03-29T21:09:57.500Z,100378.89
2023-03-29T21:12:25.987Z,100380.09
2023-03-29T21:14:54.166Z,100378.80
2023-03-29T21:17:22.740Z,100377.14
2023-03-29T21:19:50.897Z,100374.52
2023-03-29T21:22:18.907Z,100377.98
2023-03-29T21:24:47.001Z,100376.37
2023-03-29T21:27:29.906Z,100376.09
2023-03-29T21:30:14.166Z,100376.46
2023-03-29T21:32:42.261Z,100377.45
2023-03-29T21:35:11.076Z,100376.27
2023-03-29T21:37:39.265Z,100375.94
2023-03-29T21:40:10.802Z,100374.98
2023-03-29T21:42:38.994Z,100373.51
2023-03-29T21:45:08.007Z,100371.48
2023-03-29T21:47:36.250Z,100366.95
2023-03-29T21:50:04.586Z,100368.55
2023-03-29T21:52:32.666Z,100365.77
2023-03-29T21:55:00.898Z,100357.37
2023-03-29T21:57:29.149Z,100356.59
2023-03-29T21:59:57.987Z,100352.52
2023-03-29T22:02:26.348Z,100354.77
2023-03-29T22:04:54.517Z,100356.73
2023-03-29T22:07:26.560Z,100356.09
2023-03-29T22:09:54.829Z,100354.23
2023-03-29T22:12:22.899Z,100352.91
2023-03-29T22:14:50.872Z,100346.08
2023-03-29T22:17:18.814Z,100345.39
2023-03-29T22:19:47.585Z,100340.19
2023-03-29T22:22:16.341Z,100336.16
2023-03-29T22:24:44.424Z,100332.30
2023-03-29T22:27:12.464Z,100332.22
2023-03-29T22:29:40.686Z,100331.08
2023-03-29T22:32:08.906Z,100332.67
2023-03-29T22:34:37.044Z,100328.36
2023-03-29T22:37:05.495Z,100331.19
2023-03-29T22:39:36.915Z,100324.92
2023-03-29T22:42:05.045Z,100327.79
2023-03-29T22:44:33.981Z,100323.42
2023-03-29T22:47:02.155Z,100320.55
2023-03-29T22:49:30.371Z,100311.70
2023-03-29T22:51:59.961Z,100309.20
2023-03-29T22:54:29.176Z,100306.52
2023-03-29T22:56:58.123Z,100299.73
2023-03-29T22:59:26.981Z,100297.11
2023-03-29T23:01:55.026Z,100296.98
2023-03-29T23:04:23.166Z,100298.59
2023-03-29T23:06:51.347Z,100300.23
2023-03-29T23:09:19.272Z,100304.89
2023-03-29T23:11:47.217Z,100300.39
2023-03-29T23:14:15.217Z,100300.06
2023-03-29T23:16:43.302Z,100300.73
2023-03-29T23:19:12.027Z,100303.31
2023-03-29T23:21:40.067Z,100299.88
2023-03-29T23:24:08.591Z,100300.88
2023-03-29T23:26:37.615Z,100301.49
2023-03-29T23:29:05.819Z,100298.89
2023-03-29T23:31:34.089Z,100295.60
2023-03-29T23:34:03.308Z,100291.17
2023-03-29T23:36:31.604Z,100286.75
2023-03-29T23:38:59.699Z,100282.75
2023-03-29T23:41:28.538Z,100283.58
2023-03-29T23:43:57.791Z,100287.11
2023-03-29T23:46:26.147Z,100283.40
2023-03-29T23:48:54.376Z,100284.55
2023-03-29T23:51:23.269Z,100278.58
2023-03-29T23:53:51.828Z,100273.70
2023-03-29T23:56:21.676Z,100272.56
2023-03-29T23:58:49.968Z,100269.79
